PWSweather.com
Personal Weather Stations
Station Observations
JOE4SPEED
Jupiter, Fl, Jupiter, FL 33458

Jupiter, FlJupiter, FL 33458

Lat: 26.9373, Lon: -80.1101

Elevation: 12

Station Type: Davis VP 2

http://www.joe4speed.com/wxindex.php

Latest ConditionsUpdated 10:50:02 PM EDT Friday, Aug 28, 2015
Currently Today's Max Today's Min Today's Average
Temperature 78.3°F25.7°C 86.1°F30.1°C 72.5°F22.5°C 77.8°F25.4°C
Dew Point 74.7°F23.7°C 79.1°F26.2°C 70.4°F21.3°C 74.1°F23.4°C
Winds Calm Calm 6.9 mph ENE11.1 kmh ENE - 1.4 mph 2.3 kmh
Wind Gusts -- 11.5 mph18.5 kmh - -
Humidity 89% 94% 77% 88%
Pressure 30.06 in1017.9 mb 30.06 in1017.9 mb 29.94 in1013.9 mb -
Precipitation - 0.48 in12.2 mm - -
Hour Temp Dew Point Humidity Winds Wind Gusts Pressure Precip Precip Rate Daily Precip Total
10:50 PM 78.3°F25.7°C 74.7°F23.7°C 89% Calm Calm -- 30.06 in1017.9 mb - 0.00 in0.0 mm 0.48 in12.2 mm
10:40 PM 78.3°F25.7°C 74.8°F23.8°C 89% Calm Calm -- 30.06 in1017.9 mb - 0.00 in0.0 mm 0.48 in12.2 mm
10:30 PM 78.4°F25.8°C 74.9°F23.8°C 89% Calm Calm -- 30.06 in1017.9 mb - 0.00 in0.0 mm 0.48 in12.2 mm
10:20 PM 78.4°F25.8°C 74.5°F23.6°C 88% Calm Calm -- 30.06 in1017.9 mb - 0.00 in0.0 mm 0.48 in12.2 mm
10:10 PM 78.4°F25.8°C 74.5°F23.6°C 88% Calm Calm -- 30.06 in1017.9 mb - 0.00 in0.0 mm 0.48 in12.2 mm
10:00 PM 78.5°F25.8°C 74.6°F23.7°C 88% Calm Calm -- 30.06 in1017.9 mb - 0.00 in0.0 mm 0.48 in12.2 mm
09:50 PM 78.5°F25.8°C 74.7°F23.7°C 88% Calm Calm -- 30.06 in1017.9 mb - 0.00 in0.0 mm 0.48 in12.2 mm
09:40 PM 78.7°F25.9°C 74.5°F23.6°C 87% Calm Calm -- 30.05 in1017.6 mb - 0.00 in0.0 mm 0.48 in12.2 mm
09:30 PM 78.9°F26.1°C 74.7°F23.7°C 87% Calm Calm -- 30.05 in1017.6 mb - 0.00 in0.0 mm 0.48 in12.2 mm
09:20 PM 79.0°F26.1°C 74.4°F23.6°C 86% Calm Calm -- 30.04 in1017.3 mb - 0.00 in0.0 mm 0.48 in12.2 mm
09:10 PM 79.1°F26.2°C 74.5°F23.6°C 86% Calm Calm -- 30.04 in1017.3 mb - 0.00 in0.0 mm 0.48 in12.2 mm
09:00 PM 79.2°F26.2°C 74.6°F23.7°C 86% Calm Calm -- 30.04 in1017.3 mb - 0.00 in0.0 mm 0.48 in12.2 mm
08:50 PM 79.4°F26.3°C 74.5°F23.6°C 85% Calm Calm -- 30.03 in1016.9 mb - 0.00 in0.0 mm 0.48 in12.2 mm
08:40 PM 79.6°F26.4°C 74.7°F23.7°C 85% Calm Calm -- 30.03 in1016.9 mb - 0.00 in0.0 mm 0.48 in12.2 mm
08:30 PM 79.8°F26.6°C 74.9°F23.8°C 85% Calm Calm -- 30.02 in1016.6 mb - 0.00 in0.0 mm 0.48 in12.2 mm
08:20 PM 80.0°F26.7°C 74.7°F23.7°C 84% Calm Calm -- 30.02 in1016.6 mb - 0.00 in0.0 mm 0.48 in12.2 mm
08:10 PM 80.2°F26.8°C 74.9°F23.8°C 84% Calm Calm -- 30.01 in1016.3 mb - 0.00 in0.0 mm 0.48 in12.2 mm
08:00 PM 80.5°F26.9°C 74.9°F23.8°C 83% 1.2 mph SSE1.9 kmh SSE 2.3 mph3.7 kmh 30.01 in1016.3 mb - 0.00 in0.0 mm 0.48 in12.2 mm
07:50 PM 80.6°F27.0°C 75.0°F23.9°C 83% 2.3 mph SE3.7 kmh SE 3.5 mph5.6 kmh 30.01 in1016.3 mb - 0.00 in0.0 mm 0.48 in12.2 mm
07:40 PM 80.7°F27.1°C 74.7°F23.7°C 82% 2.3 mph ESE3.7 kmh ESE 3.5 mph5.6 kmh 30.01 in1016.3 mb - 0.00 in0.0 mm 0.48 in12.2 mm
07:30 PM 80.8°F27.1°C 74.8°F23.8°C 82% 3.5 mph SE5.6 kmh SE 3.5 mph5.6 kmh 30.01 in1016.3 mb - 0.00 in0.0 mm 0.48 in12.2 mm
07:20 PM 80.9°F27.2°C 75.2°F24.0°C 83% 2.3 mph SE3.7 kmh SE 3.5 mph5.6 kmh 30.01 in1016.3 mb - 0.00 in0.0 mm 0.48 in12.2 mm
07:10 PM 81.1°F27.3°C 75.4°F24.1°C 83% 2.3 mph SE3.7 kmh SE 4.6 mph7.4 kmh 30.01 in1016.3 mb - 0.00 in0.0 mm 0.48 in12.2 mm
07:00 PM 81.1°F27.3°C 75.4°F24.1°C 83% 3.5 mph E5.6 kmh E 3.5 mph5.6 kmh 30.01 in1016.3 mb - 0.00 in0.0 mm 0.48 in12.2 mm
06:50 PM 81.0°F27.2°C 75.0°F23.9°C 82% 3.5 mph E5.6 kmh E 4.6 mph7.4 kmh 30.01 in1016.3 mb - 0.00 in0.0 mm 0.48 in12.2 mm
06:40 PM 81.1°F27.3°C 75.1°F23.9°C 82% 3.5 mph SE5.6 kmh SE 4.6 mph7.4 kmh 30.00 in1015.9 mb - 0.00 in0.0 mm 0.48 in12.2 mm
06:30 PM 81.2°F27.3°C 75.2°F24.0°C 82% 3.5 mph E5.6 kmh E 6.9 mph11.1 kmh 29.99 in1015.6 mb - 0.00 in0.0 mm 0.48 in12.2 mm
06:20 PM 81.3°F27.4°C 75.3°F24.1°C 82% 3.5 mph ENE5.6 kmh ENE 8.1 mph13.0 kmh 29.99 in1015.6 mb - 0.00 in0.0 mm 0.48 in12.2 mm
06:10 PM 81.5°F27.5°C 75.5°F24.2°C 82% 4.6 mph ENE7.4 kmh ENE 4.6 mph7.4 kmh 29.99 in1015.6 mb - 0.00 in0.0 mm 0.48 in12.2 mm
06:00 PM 81.8°F27.7°C 75.4°F24.1°C 81% 3.5 mph E5.6 kmh E 4.6 mph7.4 kmh 29.99 in1015.6 mb - 0.00 in0.0 mm 0.48 in12.2 mm
05:50 PM 82.0°F27.8°C 75.6°F24.2°C 81% 3.5 mph E5.6 kmh E 8.1 mph13.0 kmh 29.99 in1015.6 mb - 0.00 in0.0 mm 0.48 in12.2 mm
05:40 PM 82.6°F28.1°C 75.8°F24.3°C 80% 6.9 mph ENE11.1 kmh ENE 9.2 mph14.8 kmh 29.98 in1015.2 mb - 0.00 in0.0 mm 0.48 in12.2 mm
05:30 PM 83.3°F28.5°C 76.1°F24.5°C 79% 6.9 mph ENE11.1 kmh ENE 11.5 mph18.5 kmh 29.98 in1015.2 mb - 0.00 in0.0 mm 0.48 in12.2 mm
05:20 PM 83.0°F28.3°C 75.4°F24.1°C 78% 6.9 mph NNE11.1 kmh NNE 9.2 mph14.8 kmh 29.98 in1015.2 mb - 0.00 in0.0 mm 0.48 in12.2 mm
05:10 PM 82.3°F27.9°C 74.4°F23.6°C 77% 4.6 mph ESE7.4 kmh ESE 9.2 mph14.8 kmh 29.99 in1015.6 mb - 0.00 in0.0 mm 0.48 in12.2 mm
05:00 PM 82.7°F28.2°C 75.1°F23.9°C 78% 5.8 mph SE9.3 kmh SE 8.1 mph13.0 kmh 30.00 in1015.9 mb - 0.00 in0.0 mm 0.48 in12.2 mm
04:50 PM 83.1°F28.4°C 75.5°F24.2°C 78% 4.6 mph E7.4 kmh E 5.8 mph9.3 kmh 30.00 in1015.9 mb - 0.00 in0.0 mm 0.48 in12.2 mm
04:40 PM 83.8°F28.8°C 76.5°F24.7°C 79% 5.8 mph E9.3 kmh E 9.2 mph14.8 kmh 30.00 in1015.9 mb - 0.00 in0.0 mm 0.48 in12.2 mm
04:30 PM 83.9°F28.8°C 76.3°F24.6°C 78% 6.9 mph E11.1 kmh E 11.5 mph18.5 kmh 29.99 in1015.6 mb - 0.00 in0.0 mm 0.48 in12.2 mm
04:20 PM 84.0°F28.9°C 77.5°F25.3°C 81% 5.8 mph ENE9.3 kmh ENE 10.4 mph16.7 kmh 29.98 in1015.2 mb - 0.00 in0.0 mm 0.48 in12.2 mm
04:10 PM 83.7°F28.7°C 78.3°F25.7°C 84% 4.6 mph ENE7.4 kmh ENE 9.2 mph14.8 kmh 29.97 in1014.9 mb - 0.00 in0.0 mm 0.48 in12.2 mm
04:00 PM 82.5°F28.1°C 78.3°F25.7°C 87% 2.3 mph E3.7 kmh E 3.5 mph5.6 kmh 29.97 in1014.9 mb - 0.00 in0.0 mm 0.48 in12.2 mm
03:50 PM 81.1°F27.3°C 77.9°F25.5°C 90% 5.8 mph ENE9.3 kmh ENE 6.9 mph11.1 kmh 29.98 in1015.2 mb - 0.00 in0.0 mm 0.48 in12.2 mm
03:40 PM 80.6°F27.0°C 77.7°F25.4°C 91% 4.6 mph NE7.4 kmh NE 6.9 mph11.1 kmh 29.98 in1015.2 mb - 0.00 in0.0 mm 0.48 in12.2 mm
03:30 PM 80.1°F26.7°C 77.5°F25.3°C 92% 3.5 mph ENE5.6 kmh ENE 5.8 mph9.3 kmh 29.98 in1015.2 mb - 0.00 in0.0 mm 0.48 in12.2 mm
03:20 PM 79.1°F26.2°C 76.5°F24.7°C 92% 1.2 mph SE1.9 kmh SE 2.3 mph3.7 kmh 29.99 in1015.6 mb - 0.01 in0.3 mm 0.48 in12.2 mm
03:10 PM 77.0°F25.0°C 74.5°F23.6°C 92% Calm Calm 2.3 mph3.7 kmh 29.99 in1015.6 mb - 0.00 in0.0 mm 0.47 in11.9 mm
03:00 PM 76.1°F24.5°C 73.3°F22.9°C 91% 3.5 mph SE5.6 kmh SE 3.5 mph5.6 kmh 30.01 in1016.3 mb - 0.00 in0.0 mm 0.47 in11.9 mm
02:50 PM 75.9°F24.4°C 73.1°F22.8°C 91% 1.2 mph SW1.9 kmh SW 1.2 mph1.9 kmh 30.01 in1016.3 mb - 0.00 in0.0 mm 0.47 in11.9 mm
02:40 PM 76.1°F24.5°C 73.3°F22.9°C 91% Calm Calm 1.2 mph1.9 kmh 30.01 in1016.3 mb - 0.00 in0.0 mm 0.47 in11.9 mm
02:30 PM 76.2°F24.6°C 73.4°F23.0°C 91% 2.3 mph SSE3.7 kmh SSE 3.5 mph5.6 kmh 30.02 in1016.6 mb - 0.01 in0.3 mm 0.47 in11.9 mm
02:20 PM 75.8°F24.3°C 73.0°F22.8°C 91% 2.3 mph SE3.7 kmh SE 3.5 mph5.6 kmh 30.02 in1016.6 mb - 0.00 in0.0 mm 0.46 in11.7 mm
02:10 PM 75.7°F24.3°C 72.8°F22.7°C 91% 2.3 mph S3.7 kmh S 3.5 mph5.6 kmh 30.02 in1016.6 mb - 0.00 in0.0 mm 0.46 in11.7 mm
02:00 PM 75.0°F23.9°C 71.9°F22.2°C 90% Calm Calm 1.2 mph1.9 kmh 30.02 in1016.6 mb - 0.01 in0.3 mm 0.46 in11.7 mm
01:50 PM 74.7°F23.7°C 71.3°F21.8°C 89% 1.2 mph SE1.9 kmh SE 2.3 mph3.7 kmh 30.04 in1017.3 mb - 0.03 in0.8 mm 0.46 in11.7 mm
01:40 PM 74.4°F23.6°C 70.6°F21.4°C 88% 5.8 mph NNW9.3 kmh NNW 6.9 mph11.1 kmh 30.03 in1016.9 mb - 0.07 in1.8 mm 0.44 in11.2 mm
01:30 PM 75.1°F23.9°C 70.6°F21.4°C 86% 1.2 mph SW1.9 kmh SW 1.2 mph1.9 kmh 30.05 in1017.6 mb - 0.19 in4.8 mm 0.38 in9.7 mm
01:20 PM 77.9°F25.5°C 72.7°F22.6°C 84% 4.6 mph SW7.4 kmh SW 9.2 mph14.8 kmh 30.04 in1017.3 mb - 0.12 in3.0 mm 0.20 in5.1 mm
01:10 PM 80.8°F27.1°C 74.1°F23.4°C 80% 1.2 mph SSW1.9 kmh SSW 2.3 mph3.7 kmh 30.03 in1016.9 mb - 0.07 in1.8 mm 0.10 in2.5 mm
01:00 PM 84.0°F28.9°C 77.6°F25.3°C 81% 1.2 mph SSE1.9 kmh SSE 3.5 mph5.6 kmh 30.03 in1016.9 mb - 0.03 in0.8 mm 0.03 in0.8 mm
12:50 PM 84.6°F29.2°C 77.7°F25.4°C 80% 2.3 mph N3.7 kmh N 3.5 mph5.6 kmh 30.02 in1016.6 mb - 0.00 in0.0 mm 0.00 in0.0 mm
12:40 PM 84.8°F29.3°C 77.2°F25.1°C 78% 3.5 mph NNW5.6 kmh NNW 6.9 mph11.1 kmh 30.02 in1016.6 mb - 0.00 in0.0 mm 0.00 in0.0 mm
12:30 PM 85.5°F29.7°C 77.9°F25.5°C 78% 1.2 mph N1.9 kmh N 2.3 mph3.7 kmh 30.02 in1016.6 mb - 0.00 in0.0 mm 0.00 in0.0 mm
12:20 PM 85.8°F29.9°C 77.8°F25.4°C 77% 2.3 mph N3.7 kmh N 4.6 mph7.4 kmh 30.02 in1016.6 mb - 0.00 in0.0 mm 0.00 in0.0 mm
12:10 PM 85.9°F29.9°C 78.6°F25.9°C 79% 2.3 mph N3.7 kmh N 6.9 mph11.1 kmh 30.02 in1016.6 mb - 0.00 in0.0 mm 0.00 in0.0 mm
12:00 PM 85.9°F29.9°C 78.2°F25.7°C 78% 3.5 mph NNE5.6 kmh NNE 5.8 mph9.3 kmh 30.02 in1016.6 mb - 0.00 in0.0 mm 0.00 in0.0 mm
11:50 AM 85.9°F29.9°C 77.8°F25.4°C 77% 2.3 mph N3.7 kmh N 3.5 mph5.6 kmh 30.02 in1016.6 mb - 0.00 in0.0 mm 0.00 in0.0 mm
11:40 AM 86.1°F30.1°C 78.4°F25.8°C 78% 2.3 mph NE3.7 kmh NE 3.5 mph5.6 kmh 30.02 in1016.6 mb - 0.00 in0.0 mm 0.00 in0.0 mm
11:30 AM 85.7°F29.8°C 78.8°F26.0°C 80% 3.5 mph NE5.6 kmh NE 4.6 mph7.4 kmh 30.02 in1016.6 mb - 0.00 in0.0 mm 0.00 in0.0 mm
11:20 AM 85.0°F29.4°C 78.5°F25.8°C 81% 2.3 mph NE3.7 kmh NE 2.3 mph3.7 kmh 30.02 in1016.6 mb - 0.00 in0.0 mm 0.00 in0.0 mm
11:10 AM 84.1°F28.9°C 78.8°F26.0°C 84% 2.3 mph N3.7 kmh N 3.5 mph5.6 kmh 30.02 in1016.6 mb - 0.00 in0.0 mm 0.00 in0.0 mm
11:00 AM 83.0°F28.3°C 79.1°F26.2°C 88% 3.5 mph NW5.6 kmh NW 5.8 mph9.3 kmh 30.02 in1016.6 mb - 0.00 in0.0 mm 0.00 in0.0 mm
10:50 AM 82.3°F27.9°C 79.1°F26.2°C 90% 1.2 mph N1.9 kmh N 3.5 mph5.6 kmh 30.02 in1016.6 mb - 0.00 in0.0 mm 0.00 in0.0 mm
10:40 AM 81.4°F27.4°C 78.9°F26.1°C 92% 3.5 mph NNE5.6 kmh NNE 4.6 mph7.4 kmh 30.02 in1016.6 mb - 0.00 in0.0 mm 0.00 in0.0 mm
10:30 AM 81.2°F27.3°C 79.0°F26.1°C 93% Calm Calm 1.2 mph1.9 kmh 30.01 in1016.3 mb - 0.00 in0.0 mm 0.00 in0.0 mm
10:20 AM 81.0°F27.2°C 78.8°F26.0°C 93% 1.2 mph N1.9 kmh N 2.3 mph3.7 kmh 30.02 in1016.6 mb - 0.00 in0.0 mm 0.00 in0.0 mm
10:10 AM 80.2°F26.8°C 78.0°F25.6°C 93% 2.3 mph NW3.7 kmh NW 2.3 mph3.7 kmh 30.02 in1016.6 mb - 0.00 in0.0 mm 0.00 in0.0 mm
10:00 AM 79.4°F26.3°C 77.2°F25.1°C 93% 1.2 mph NW1.9 kmh NW 2.3 mph3.7 kmh 30.02 in1016.6 mb - 0.00 in0.0 mm 0.00 in0.0 mm
09:50 AM 79.0°F26.1°C 76.8°F24.9°C 93% 1.2 mph NW1.9 kmh NW 3.5 mph5.6 kmh 30.02 in1016.6 mb - 0.00 in0.0 mm 0.00 in0.0 mm
09:40 AM 79.2°F26.2°C 77.0°F25.0°C 93% 1.2 mph NW1.9 kmh NW 2.3 mph3.7 kmh 30.01 in1016.3 mb - 0.00 in0.0 mm 0.00 in0.0 mm
09:30 AM 79.2°F26.2°C 77.0°F25.0°C 93% 2.3 mph NW3.7 kmh NW 3.5 mph5.6 kmh 30.01 in1016.3 mb - 0.00 in0.0 mm 0.00 in0.0 mm
09:20 AM 78.9°F26.1°C 76.7°F24.8°C 93% 1.2 mph NW1.9 kmh NW 2.3 mph3.7 kmh 30.00 in1015.9 mb - 0.00 in0.0 mm 0.00 in0.0 mm
09:10 AM 78.7°F25.9°C 76.5°F24.7°C 93% Calm Calm -- 30.00 in1015.9 mb - 0.00 in0.0 mm 0.00 in0.0 mm
09:00 AM 78.0°F25.6°C 75.8°F24.3°C 93% Calm Calm -- 30.00 in1015.9 mb - 0.00 in0.0 mm 0.00 in0.0 mm
08:50 AM 77.4°F25.2°C 75.2°F24.0°C 93% Calm Calm -- 29.99 in1015.6 mb - 0.00 in0.0 mm 0.00 in0.0 mm
08:40 AM 77.0°F25.0°C 75.1°F23.9°C 94% Calm Calm -- 30.00 in1015.9 mb - 0.00 in0.0 mm 0.00 in0.0 mm
08:30 AM 76.7°F24.8°C 74.9°F23.8°C 94% Calm Calm -- 30.00 in1015.9 mb - 0.00 in0.0 mm 0.00 in0.0 mm
08:20 AM 76.3°F24.6°C 74.4°F23.6°C 94% Calm Calm -- 30.00 in1015.9 mb - 0.00 in0.0 mm 0.00 in0.0 mm
08:10 AM 75.6°F24.2°C 73.7°F23.2°C 94% Calm Calm -- 30.00 in1015.9 mb - 0.00 in0.0 mm 0.00 in0.0 mm
08:00 AM 74.6°F23.7°C 72.8°F22.7°C 94% Calm Calm -- 29.99 in1015.6 mb - 0.00 in0.0 mm 0.00 in0.0 mm
07:50 AM 74.0°F23.3°C 72.2°F22.3°C 94% Calm Calm -- 29.99 in1015.6 mb - 0.00 in0.0 mm 0.00 in0.0 mm
07:40 AM 73.5°F23.1°C 71.7°F22.1°C 94% Calm Calm -- 29.99 in1015.6 mb - 0.00 in0.0 mm 0.00 in0.0 mm
07:30 AM 73.1°F22.8°C 71.3°F21.8°C 94% Calm Calm -- 29.99 in1015.6 mb - 0.00 in0.0 mm 0.00 in0.0 mm
07:20 AM 72.7°F22.6°C 70.6°F21.4°C 93% Calm Calm -- 29.98 in1015.2 mb - 0.00 in0.0 mm 0.00 in0.0 mm
07:10 AM 72.5°F22.5°C 70.4°F21.3°C 93% Calm Calm -- 29.98 in1015.2 mb - 0.00 in0.0 mm 0.00 in0.0 mm
07:00 AM 72.5°F22.5°C 70.4°F21.3°C 93% Calm Calm -- 29.97 in1014.9 mb - 0.00 in0.0 mm 0.00 in0.0 mm
06:50 AM 72.6°F22.6°C 70.4°F21.3°C 93% Calm Calm -- 29.97 in1014.9 mb - 0.00 in0.0 mm 0.00 in0.0 mm
06:40 AM 72.5°F22.5°C 70.4°F21.3°C 93% Calm Calm -- 29.97 in1014.9 mb - 0.00 in0.0 mm 0.00 in0.0 mm
06:30 AM 72.6°F22.6°C 70.4°F21.3°C 93% Calm Calm -- 29.97 in1014.9 mb - 0.00 in0.0 mm 0.00 in0.0 mm
06:20 AM 72.7°F22.6°C 70.6°F21.4°C 93% Calm Calm -- 29.96 in1014.6 mb - 0.00 in0.0 mm 0.00 in0.0 mm
06:10 AM 72.6°F22.6°C 70.5°F21.4°C 93% Calm Calm -- 29.96 in1014.6 mb - 0.00 in0.0 mm 0.00 in0.0 mm
06:00 AM 72.7°F22.6°C 70.6°F21.4°C 93% Calm Calm -- 29.96 in1014.6 mb - 0.00 in0.0 mm 0.00 in0.0 mm
05:50 AM 72.8°F22.7°C 70.7°F21.5°C 93% Calm Calm -- 29.95 in1014.2 mb - 0.00 in0.0 mm 0.00 in0.0 mm
05:40 AM 72.9°F22.7°C 70.7°F21.5°C 93% Calm Calm -- 29.95 in1014.2 mb - 0.00 in0.0 mm 0.00 in0.0 mm
05:30 AM 72.9°F22.7°C 70.8°F21.6°C 93% Calm Calm -- 29.95 in1014.2 mb - 0.00 in0.0 mm 0.00 in0.0 mm
05:20 AM 73.0°F22.8°C 70.8°F21.6°C 93% Calm Calm -- 29.95 in1014.2 mb - 0.00 in0.0 mm 0.00 in0.0 mm
05:10 AM 73.0°F22.8°C 70.9°F21.6°C 93% Calm Calm -- 29.94 in1013.9 mb - 0.00 in0.0 mm 0.00 in0.0 mm
05:00 AM 73.0°F22.8°C 70.9°F21.6°C 93% Calm Calm -- 29.94 in1013.9 mb - 0.00 in0.0 mm 0.00 in0.0 mm
04:50 AM 72.9°F22.7°C 70.8°F21.6°C 93% Calm Calm -- 29.95 in1014.2 mb - 0.00 in0.0 mm 0.00 in0.0 mm
04:40 AM 72.9°F22.7°C 70.7°F21.5°C 93% Calm Calm -- 29.94 in1013.9 mb - 0.00 in0.0 mm 0.00 in0.0 mm
04:30 AM 72.9°F22.7°C 70.8°F21.6°C 93% Calm Calm -- 29.94 in1013.9 mb - 0.00 in0.0 mm 0.00 in0.0 mm
04:20 AM 72.9°F22.7°C 70.7°F21.5°C 93% Calm Calm -- 29.94 in1013.9 mb - 0.00 in0.0 mm 0.00 in0.0 mm
04:10 AM 72.9°F22.7°C 70.8°F21.6°C 93% Calm Calm -- 29.94 in1013.9 mb - 0.00 in0.0 mm 0.00 in0.0 mm
04:00 AM 72.8°F22.7°C 70.7°F21.5°C 93% Calm Calm -- 29.95 in1014.2 mb - 0.00 in0.0 mm 0.00 in0.0 mm
03:50 AM 73.0°F22.8°C 70.9°F21.6°C 93% Calm Calm -- 29.94 in1013.9 mb - 0.00 in0.0 mm 0.00 in0.0 mm
03:40 AM 73.0°F22.8°C 70.9°F21.6°C 93% Calm Calm -- 29.95 in1014.2 mb - 0.00 in0.0 mm 0.00 in0.0 mm
03:30 AM 73.1°F22.8°C 71.0°F21.7°C 93% Calm Calm -- 29.94 in1013.9 mb - 0.00 in0.0 mm 0.00 in0.0 mm
03:20 AM 73.1°F22.8°C 71.0°F21.7°C 93% Calm Calm -- 29.95 in1014.2 mb - 0.00 in0.0 mm 0.00 in0.0 mm
03:10 AM 73.3°F22.9°C 71.2°F21.8°C 93% Calm Calm -- 29.95 in1014.2 mb - 0.00 in0.0 mm 0.00 in0.0 mm
03:00 AM 73.3°F22.9°C 71.2°F21.8°C 93% Calm Calm -- 29.95 in1014.2 mb - 0.00 in0.0 mm 0.00 in0.0 mm
02:50 AM 73.3°F22.9°C 71.2°F21.8°C 93% Calm Calm -- 29.96 in1014.6 mb - 0.00 in0.0 mm 0.00 in0.0 mm
02:40 AM 73.2°F22.9°C 71.0°F21.7°C 93% Calm Calm -- 29.96 in1014.6 mb - 0.00 in0.0 mm 0.00 in0.0 mm
02:30 AM 73.2°F22.9°C 71.1°F21.7°C 93% Calm Calm -- 29.96 in1014.6 mb - 0.00 in0.0 mm 0.00 in0.0 mm
02:20 AM 73.3°F22.9°C 71.2°F21.8°C 93% Calm Calm -- 29.96 in1014.6 mb - 0.00 in0.0 mm 0.00 in0.0 mm
02:10 AM 73.4°F23.0°C 71.3°F21.8°C 93% Calm Calm -- 29.96 in1014.6 mb - 0.00 in0.0 mm 0.00 in0.0 mm
02:00 AM 73.6°F23.1°C 71.4°F21.9°C 93% Calm Calm -- 29.96 in1014.6 mb - 0.00 in0.0 mm 0.00 in0.0 mm
01:50 AM 73.7°F23.2°C 71.5°F21.9°C 93% Calm Calm -- 29.96 in1014.6 mb - 0.00 in0.0 mm 0.00 in0.0 mm
01:40 AM 73.6°F23.1°C 71.4°F21.9°C 93% Calm Calm -- 29.96 in1014.6 mb - 0.00 in0.0 mm 0.00 in0.0 mm
01:30 AM 73.7°F23.2°C 71.5°F21.9°C 93% Calm Calm -- 29.97 in1014.9 mb - 0.00 in0.0 mm 0.00 in0.0 mm
01:20 AM 73.8°F23.2°C 71.6°F22.0°C 93% Calm Calm -- 29.98 in1015.2 mb - 0.00 in0.0 mm 0.00 in0.0 mm
01:10 AM 73.9°F23.3°C 71.7°F22.1°C 93% Calm Calm -- 29.98 in1015.2 mb - 0.00 in0.0 mm 0.00 in0.0 mm
01:00 AM 73.9°F23.3°C 71.7°F22.1°C 93% Calm Calm -- 29.98 in1015.2 mb - 0.00 in0.0 mm 0.00 in0.0 mm
12:50 AM 74.0°F23.3°C 71.8°F22.1°C 93% Calm Calm -- 29.98 in1015.2 mb - 0.00 in0.0 mm 0.00 in0.0 mm
12:40 AM 74.1°F23.4°C 72.0°F22.2°C 93% Calm Calm -- 29.98 in1015.2 mb - 0.00 in0.0 mm 0.00 in0.0 mm
12:30 AM 74.2°F23.4°C 72.0°F22.2°C 93% Calm Calm 1.2 mph1.9 kmh 29.99 in1015.6 mb - 0.00 in0.0 mm 0.00 in0.0 mm
12:20 AM 74.2°F23.4°C 72.0°F22.2°C 93% 1.2 mph SE1.9 kmh SE 2.3 mph3.7 kmh 29.99 in1015.6 mb - 0.00 in0.0 mm 0.00 in0.0 mm
12:10 AM 74.1°F23.4°C 72.0°F22.2°C 93% Calm Calm 1.2 mph1.9 kmh 30.00 in1015.9 mb - 0.00 in0.0 mm 0.00 in0.0 mm
12:00 AM 74.2°F23.4°C 72.0°F22.2°C 93% Calm Calm -- 30.00 in1015.9 mb - 0.00 in0.0 mm 0.00 in0.0 mm